createdAt,value
2022-08-09T00:01:52.795Z,95.00
2022-08-09T00:04:34.563Z,95.00
2022-08-09T00:07:03.704Z,95.00
2022-08-09T00:09:39.218Z,95.00
2022-08-09T00:12:06.903Z,95.00
2022-08-09T00:14:37.895Z,95.00
2022-08-09T00:17:05.900Z,95.00
2022-08-09T00:19:34.781Z,95.00
2022-08-09T00:22:04.422Z,95.00
2022-08-09T00:24:33.264Z,95.00
2022-08-09T00:27:05.659Z,95.00
2022-08-09T00:30:10.070Z,95.00
2022-08-09T00:32:27.248Z,95.00
2022-08-09T00:34:54.516Z,95.00
2022-08-09T00:37:23.953Z,95.00
2022-08-09T00:40:09.014Z,95.00
2022-08-09T00:44:10.126Z,95.00
2022-08-09T00:45:28.165Z,95.00
2022-08-09T00:47:55.467Z,95.00
2022-08-09T00:50:24.175Z,95.00
2022-08-09T00:52:51.776Z,95.00
2022-08-09T00:56:03.673Z,95.00
2022-08-09T00:58:09.626Z,95.00
2022-08-09T01:00:44.272Z,95.00
2022-08-09T01:03:18.758Z,95.00
2022-08-09T01:05:54.609Z,95.00
2022-08-09T01:08:30.886Z,95.00
2022-08-09T01:11:15.715Z,95.00
2022-08-09T01:13:59.185Z,95.00
2022-08-09T01:16:33.697Z,95.00
2022-08-09T01:19:17.034Z,95.00
2022-08-09T01:22:16.280Z,95.00
2022-08-09T01:24:58.415Z,95.00
2022-08-09T01:27:33.309Z,95.00
2022-08-09T01:30:03.821Z,95.00
2022-08-09T01:32:37.566Z,95.00
2022-08-09T01:35:28.657Z,95.00
2022-08-09T01:38:08.311Z,95.00
2022-08-09T01:40:42.439Z,95.00
2022-08-09T01:43:12.463Z,95.00
2022-08-09T01:45:44.783Z,95.00
2022-08-09T01:48:16.602Z,95.00
2022-08-09T01:50:54.999Z,95.00
2022-08-09T01:53:22.780Z,95.00
2022-08-09T01:55:52.279Z,95.00
2022-08-09T01:58:25.705Z,95.00
2022-08-09T02:00:57.607Z,95.00
2022-08-09T02:03:30.054Z,95.00
2022-08-09T02:06:06.328Z,95.00
2022-08-09T02:08:58.567Z,95.00
2022-08-09T02:11:42.851Z,95.00
2022-08-09T02:14:15.805Z,95.00
2022-08-09T02:17:14.724Z,95.00
2022-08-09T02:19:45.076Z,95.00
2022-08-09T02:22:31.521Z,95.00
2022-08-09T02:25:04.514Z,95.00
2022-08-09T02:27:43.508Z,95.00
2022-08-09T02:30:36.844Z,95.00
2022-08-09T02:33:07.769Z,95.00
2022-08-09T02:36:01.885Z,95.00
2022-08-09T02:38:32.553Z,95.00
2022-08-09T02:41:08.296Z,95.00
2022-08-09T02:43:51.804Z,95.00
2022-08-09T02:46:28.428Z,95.00
2022-08-09T02:49:01.176Z,95.00
2022-08-09T02:51:37.011Z,95.00
2022-08-09T02:54:13.808Z,95.00
2022-08-09T02:56:48.852Z,95.00
2022-08-09T02:59:26.471Z,95.00
2022-08-09T03:02:12.326Z,95.00
2022-08-09T03:04:50.722Z,95.00
2022-08-09T03:07:20.502Z,95.00
2022-08-09T03:09:54.065Z,95.00
2022-08-09T03:12:25.617Z,95.00
2022-08-09T03:14:54.262Z,95.00
2022-08-09T03:17:27.103Z,95.00
2022-08-09T03:20:03.522Z,95.00
2022-08-09T03:22:41.351Z,95.00
2022-08-09T03:25:26.911Z,95.00
2022-08-09T03:27:59.895Z,95.00
2022-08-09T03:30:34.262Z,95.00
2022-08-09T03:33:13.161Z,95.00
2022-08-09T03:36:13.716Z,95.00
2022-08-09T03:38:34.451Z,95.00
2022-08-09T03:41:04.885Z,95.00
2022-08-09T03:43:33.417Z,95.00
2022-08-09T03:46:20.031Z,95.00
2022-08-09T03:48:59.094Z,95.00
2022-08-09T03:51:57.222Z,95.00
2022-08-09T03:54:29.149Z,95.00
2022-08-09T03:57:04.309Z,95.00
2022-08-09T03:59:54.982Z,95.00
2022-08-09T04:02:26.462Z,95.00
2022-08-09T04:04:59.286Z,95.00
2022-08-09T04:07:33.688Z,95.00
2022-08-09T04:10:20.398Z,95.00
2022-08-09T04:12:52.332Z,95.00
2022-08-09T04:15:40.563Z,95.00
2022-08-09T04:18:17.789Z,95.00
2022-08-09T04:20:46.827Z,95.00
2022-08-09T04:23:17.270Z,95.00
2022-08-09T04:25:49.643Z,95.00
2022-08-09T04:28:34.314Z,95.00
2022-08-09T04:31:07.705Z,95.00
2022-08-09T04:33:47.733Z,95.00
2022-08-09T04:36:21.774Z,95.00
2022-08-09T04:38:50.740Z,95.00
2022-08-09T04:41:24.036Z,95.00
2022-08-09T04:44:05.962Z,95.00
2022-08-09T04:46:57.699Z,95.00
2022-08-09T04:49:40.112Z,95.00
2022-08-09T04:52:22.052Z,95.00
2022-08-09T04:54:53.833Z,95.00
2022-08-09T04:57:25.224Z,95.00
2022-08-09T04:59:54.372Z,95.00
2022-08-09T05:02:23.363Z,95.00
2022-08-09T05:04:55.179Z,95.00
2022-08-09T05:07:29.143Z,95.00
2022-08-09T05:10:02.041Z,95.00
2022-08-09T05:12:33.252Z,95.00
2022-08-09T05:15:03.440Z,95.00
2022-08-09T05:18:38.084Z,95.00
2022-08-09T05:20:29.528Z,95.00
2022-08-09T05:23:55.655Z,95.00
2022-08-09T05:25:51.949Z,95.00
2022-08-09T05:28:23.021Z,95.00
2022-08-09T05:30:51.590Z,95.00
2022-08-09T05:33:26.442Z,95.00
2022-08-09T05:36:01.138Z,95.00
2022-08-09T05:38:35.231Z,95.00
2022-08-09T05:41:06.476Z,93.18
2022-08-09T05:43:40.637Z,95.00
2022-08-09T05:46:16.005Z,86.74
2022-08-09T05:48:42.976Z,79.92
2022-08-09T05:51:41.613Z,79.27
2022-08-09T05:53:59.635Z,82.13
2022-08-09T05:56:30.146Z,82.32
2022-08-09T05:58:58.670Z,84.55
2022-08-09T06:01:34.265Z,85.00
2022-08-09T06:04:13.629Z,85.85
2022-08-09T06:06:50.090Z,86.92
2022-08-09T06:09:40.787Z,88.28
2022-08-09T06:12:12.080Z,86.43
2022-08-09T06:14:42.936Z,88.02
2022-08-09T06:17:16.572Z,85.32
2022-08-09T06:19:46.881Z,85.28
2022-08-09T06:22:22.495Z,88.48
2022-08-09T06:25:12.442Z,87.77
2022-08-09T06:27:51.696Z,84.79
2022-08-09T06:30:22.999Z,85.11
2022-08-09T06:33:00.348Z,85.82
2022-08-09T06:35:57.002Z,89.10
2022-08-09T06:38:37.208Z,88.75
2022-08-09T06:41:12.418Z,90.12
2022-08-09T06:43:47.606Z,89.59
2022-08-09T06:46:40.269Z,89.05
2022-08-09T06:50:13.862Z,88.66
2022-08-09T06:52:45.863Z,87.28
2022-08-09T06:55:18.134Z,86.11
2022-08-09T06:58:03.117Z,81.82
2022-08-09T07:00:51.087Z,78.27
2022-08-09T07:03:28.073Z,76.08
2022-08-09T07:06:03.561Z,75.17
2022-08-09T07:08:39.792Z,72.40
2022-08-09T07:11:07.899Z,71.54
2022-08-09T07:13:45.229Z,71.32
2022-08-09T07:16:41.707Z,72.02
2022-08-09T07:19:22.968Z,72.33
2022-08-09T07:21:56.938Z,69.63
2022-08-09T07:24:32.772Z,69.14
2022-08-09T07:27:27.153Z,68.37
2022-08-09T07:30:00.301Z,67.24
2022-08-09T07:32:33.046Z,70.02
2022-08-09T07:35:10.199Z,70.48
2022-08-09T07:37:45.750Z,70.11
2022-08-09T07:40:17.041Z,72.25
2022-08-09T07:42:55.963Z,71.72
2022-08-09T07:45:39.605Z,68.70
2022-08-09T07:48:28.917Z,64.50
2022-08-09T07:51:09.527Z,63.46
2022-08-09T07:54:05.780Z,65.24
2022-08-09T07:56:38.869Z,66.04
2022-08-09T07:59:16.094Z,66.30
2022-08-09T08:02:05.091Z,67.19
2022-08-09T08:04:33.964Z,66.78
2022-08-09T08:07:15.489Z,65.35
2022-08-09T08:10:10.626Z,66.05
2022-08-09T08:12:43.547Z,62.54
2022-08-09T08:15:13.768Z,63.96
2022-08-09T08:17:54.914Z,61.71
2022-08-09T08:20:30.518Z,54.96
2022-08-09T08:23:16.267Z,56.36
2022-08-09T08:25:50.327Z,56.35
2022-08-09T08:28:25.708Z,56.03
2022-08-09T08:31:08.902Z,55.02
2022-08-09T08:33:53.505Z,54.56
2022-08-09T08:36:28.624Z,51.78
2022-08-09T08:38:56.663Z,49.40
2022-08-09T08:41:51.070Z,51.07
2022-08-09T08:44:23.068Z,49.90
2022-08-09T08:47:02.961Z,48.76
2022-08-09T08:49:48.103Z,47.76
2022-08-09T08:52:57.397Z,48.54
2022-08-09T08:55:07.552Z,43.87
2022-08-09T08:57:37.392Z,47.43
2022-08-09T09:00:16.819Z,48.11
2022-08-09T09:02:52.644Z,47.93
2022-08-09T09:05:57.763Z,46.59
2022-08-09T09:08:30.784Z,44.46
2022-08-09T09:11:02.492Z,42.85
2022-08-09T09:13:55.463Z,42.36
2022-08-09T09:16:29.806Z,43.08
2022-08-09T09:22:04.239Z,42.49
2022-08-09T09:24:34.680Z,42.07
2022-08-09T09:27:02.746Z,41.47
2022-08-09T09:30:08.521Z,39.44
2022-08-09T09:32:32.439Z,40.99
2022-08-09T09:35:07.696Z,40.86
2022-08-09T09:37:40.212Z,41.22
2022-08-09T09:40:12.328Z,40.67
2022-08-09T09:42:42.964Z,40.52
2022-08-09T09:45:26.823Z,40.66
2022-08-09T09:48:03.667Z,41.26
2022-08-09T09:50:51.076Z,41.91
2022-08-09T09:53:44.018Z,39.15
2022-08-09T09:56:20.067Z,38.49
2022-08-09T09:59:00.478Z,36.58
2022-08-09T10:01:38.213Z,40.98
2022-08-09T10:04:15.887Z,41.74
2022-08-09T10:06:52.126Z,41.91
2022-08-09T10:09:24.717Z,41.80
2022-08-09T10:12:07.636Z,42.85
2022-08-09T10:17:56.800Z,45.70
2022-08-09T10:20:35.695Z,42.27
2022-08-09T10:23:20.027Z,42.32
2022-08-09T10:26:06.308Z,41.61
2022-08-09T10:28:35.622Z,44.80
2022-08-09T10:34:10.101Z,41.38
2022-08-09T10:36:40.050Z,38.92
2022-08-09T10:39:15.499Z,41.36
2022-08-09T10:41:48.037Z,37.98
2022-08-09T10:44:18.426Z,41.01
2022-08-09T10:48:12.812Z,39.56
2022-08-09T10:50:05.526Z,39.73
2022-08-09T10:52:57.038Z,42.69
2022-08-09T10:55:28.278Z,40.48
2022-08-09T10:58:00.133Z,44.42
2022-08-09T11:00:35.873Z,40.62
2022-08-09T11:03:27.820Z,42.06
2022-08-09T11:06:22.895Z,42.45
2022-08-09T11:09:15.547Z,42.25
2022-08-09T11:12:17.320Z,42.39
2022-08-09T11:14:46.094Z,43.76
2022-08-09T11:17:53.442Z,45.19
2022-08-09T11:20:45.460Z,40.18
2022-08-09T11:23:23.875Z,39.84
2022-08-09T11:25:57.390Z,39.67
2022-08-09T11:28:38.610Z,39.05
2022-08-09T11:31:48.831Z,38.87
2022-08-09T11:34:35.622Z,39.50
2022-08-09T11:37:07.333Z,40.12
2022-08-09T11:40:05.403Z,41.40
2022-08-09T11:42:46.763Z,42.85
2022-08-09T11:45:22.637Z,39.88
2022-08-09T11:47:52.387Z,38.96
2022-08-09T11:51:19.245Z,39.74
2022-08-09T11:54:00.621Z,37.90
2022-08-09T11:56:47.549Z,41.20
2022-08-09T11:59:30.144Z,38.01
2022-08-09T12:02:34.051Z,40.65
2022-08-09T12:04:57.997Z,38.00
2022-08-09T12:07:41.687Z,37.79
2022-08-09T12:10:31.896Z,39.52
2022-08-09T12:13:03.805Z,40.99
2022-08-09T12:15:52.188Z,37.80
2022-08-09T12:18:29.577Z,38.41
2022-08-09T12:20:59.067Z,39.41
2022-08-09T12:23:57.954Z,42.03
2022-08-09T12:26:19.565Z,39.25
2022-08-09T12:29:10.433Z,38.62
2022-08-09T12:32:01.690Z,38.53
2022-08-09T12:34:35.919Z,38.51
2022-08-09T12:37:09.732Z,38.92
2022-08-09T12:40:01.354Z,39.05
2022-08-09T12:42:30.740Z,39.44
2022-08-09T12:45:00.973Z,38.05
2022-08-09T12:47:37.171Z,38.32
2022-08-09T12:50:12.211Z,38.45
2022-08-09T12:52:42.978Z,38.15
2022-08-09T12:56:11.819Z,38.17
2022-08-09T12:58:24.002Z,38.19
2022-08-09T13:01:00.336Z,36.73
2022-08-09T13:03:57.025Z,36.86
2022-08-09T13:06:34.984Z,38.89
2022-08-09T13:09:15.500Z,38.50
2022-08-09T13:11:47.481Z,39.17
2022-08-09T13:14:41.697Z,39.94
2022-08-09T13:17:43.862Z,39.46
2022-08-09T13:20:09.378Z,38.36
2022-08-09T13:23:01.804Z,37.00
2022-08-09T13:25:42.016Z,37.96
2022-08-09T13:28:14.085Z,38.77
2022-08-09T13:32:15.826Z,38.55
2022-08-09T13:33:54.345Z,36.58
2022-08-09T13:36:37.334Z,35.64
2022-08-09T13:41:54.534Z,37.52
2022-08-09T13:42:02.049Z,37.79
2022-08-09T13:44:29.969Z,39.17
2022-08-09T13:47:26.963Z,37.96
2022-08-09T13:49:56.330Z,38.42
2022-08-09T13:52:29.402Z,38.93
2022-08-09T13:55:00.588Z,36.23
2022-08-09T13:57:37.412Z,38.90
2022-08-09T14:00:10.817Z,40.14
2022-08-09T14:02:42.332Z,37.92
2022-08-09T14:05:59.259Z,36.00
2022-08-09T14:08:17.417Z,37.18
2022-08-09T14:10:49.326Z,35.25
2022-08-09T14:13:21.843Z,37.44
2022-08-09T14:16:10.206Z,35.76
2022-08-09T14:18:45.963Z,35.78
2022-08-09T14:21:20.336Z,37.00
2022-08-09T14:23:55.201Z,36.73
2022-08-09T14:26:32.111Z,37.66
2022-08-09T14:29:01.481Z,39.29
2022-08-09T14:31:36.028Z,36.22
2022-08-09T14:34:31.585Z,37.50
2022-08-09T14:37:13.485Z,36.07
2022-08-09T14:39:46.938Z,36.12
2022-08-09T14:42:28.783Z,36.41
2022-08-09T14:46:39.991Z,36.88
2022-08-09T14:47:58.685Z,35.61
2022-08-09T14:50:28.789Z,35.78
2022-08-09T14:52:57.602Z,36.86
2022-08-09T14:55:24.982Z,37.95
2022-08-09T14:57:52.335Z,34.69
2022-08-09T15:00:21.452Z,35.66
2022-08-09T15:02:52.097Z,33.36
2022-08-09T15:05:20.153Z,36.79
2022-08-09T15:07:54.822Z,35.31
2022-08-09T15:10:29.364Z,35.01
2022-08-09T15:13:03.027Z,35.60
2022-08-09T15:15:34.514Z,36.78
2022-08-09T15:18:08.268Z,37.04
2022-08-09T15:21:58.699Z,35.06
2022-08-09T15:24:03.599Z,37.07
2022-08-09T15:26:31.069Z,37.70
2022-08-09T15:29:04.231Z,36.34
2022-08-09T15:31:41.491Z,38.02
2022-08-09T15:34:33.505Z,36.07
2022-08-09T15:37:04.315Z,36.63
2022-08-09T15:39:49.959Z,37.80
2022-08-09T15:42:22.278Z,37.34
2022-08-09T15:44:49.793Z,38.04
2022-08-09T15:47:22.482Z,38.15
2022-08-09T15:50:04.209Z,38.07
2022-08-09T15:52:33.588Z,38.06
2022-08-09T15:55:01.468Z,37.37
2022-08-09T15:57:43.991Z,38.13
2022-08-09T16:00:14.903Z,39.74
2022-08-09T16:02:48.122Z,37.34
2022-08-09T16:05:25.585Z,38.66
2022-08-09T16:07:52.676Z,39.07
2022-08-09T16:10:56.006Z,38.16
2022-08-09T16:13:18.997Z,38.63
2022-08-09T16:16:10.256Z,36.97
2022-08-09T16:18:45.822Z,40.39
2022-08-09T16:21:16.906Z,39.24
2022-08-09T16:23:50.925Z,40.95
2022-08-09T16:26:34.484Z,40.45
2022-08-09T16:29:11.022Z,39.95
2022-08-09T16:32:17.853Z,39.14
2022-08-09T16:34:54.798Z,38.67
2022-08-09T16:37:19.169Z,39.50
2022-08-09T16:39:48.154Z,40.54
2022-08-09T16:42:35.398Z,39.53
2022-08-09T16:45:05.620Z,40.92
2022-08-09T16:48:40.748Z,42.00
2022-08-09T16:50:29.161Z,41.42
2022-08-09T16:53:01.890Z,43.50
2022-08-09T16:55:44.160Z,42.72
2022-08-09T16:58:22.575Z,40.93
2022-08-09T17:00:52.606Z,42.29
2022-08-09T17:03:22.846Z,43.84
2022-08-09T17:06:07.578Z,43.53
2022-08-09T17:08:45.726Z,42.96
2022-08-09T17:11:41.234Z,43.20
2022-08-09T17:14:25.880Z,42.98
2022-08-09T17:17:25.935Z,42.35
2022-08-09T17:20:29.706Z,43.11
2022-08-09T17:22:50.324Z,44.21
2022-08-09T17:25:22.290Z,41.27
2022-08-09T17:27:54.613Z,42.01
2022-08-09T17:30:25.985Z,44.71
2022-08-09T17:33:00.695Z,41.02
2022-08-09T17:38:34.141Z,43.18
2022-08-09T17:41:05.848Z,42.25
2022-08-09T17:43:37.034Z,41.55
2022-08-09T17:46:07.650Z,42.77
2022-08-09T17:48:52.309Z,41.92
2022-08-09T17:51:23.127Z,42.13
2022-08-09T17:53:53.424Z,48.26
2022-08-09T17:56:27.444Z,44.77
2022-08-09T17:58:58.562Z,44.85
2022-08-09T18:02:03.314Z,52.56
2022-08-09T18:04:15.616Z,47.69
2022-08-09T18:06:49.760Z,47.75
2022-08-09T18:09:40.078Z,47.56
2022-08-09T18:12:19.867Z,51.80
2022-08-09T18:14:55.050Z,50.50
2022-08-09T18:18:03.338Z,53.16
2022-08-09T18:21:00.490Z,53.19
2022-08-09T18:24:11.629Z,50.85
2022-08-09T18:26:04.937Z,55.93
2022-08-09T18:30:41.836Z,50.74
2022-08-09T18:31:24.871Z,51.74
2022-08-09T18:34:06.067Z,56.09
2022-08-09T18:36:36.421Z,53.15
2022-08-09T18:39:05.510Z,54.74
2022-08-09T18:41:35.007Z,57.46
2022-08-09T18:44:31.895Z,55.90
2022-08-09T18:47:15.053Z,54.49
2022-08-09T18:49:47.442Z,53.16
2022-08-09T18:52:24.974Z,53.98
2022-08-09T18:55:02.770Z,57.78
2022-08-09T18:57:42.756Z,49.73
2022-08-09T19:00:20.319Z,47.84
2022-08-09T19:02:54.270Z,50.50
2022-08-09T19:05:49.074Z,52.28
2022-08-09T19:08:19.851Z,46.83
2022-08-09T19:10:50.771Z,47.72
2022-08-09T19:13:38.254Z,47.30
2022-08-09T19:16:20.878Z,45.47
2022-08-09T19:18:50.737Z,44.77
2022-08-09T19:21:21.593Z,44.82
2022-08-09T19:24:33.463Z,43.26
2022-08-09T19:26:57.920Z,44.30
2022-08-09T19:29:24.888Z,43.78
2022-08-09T19:31:51.871Z,44.87
2022-08-09T19:34:22.860Z,44.31
2022-08-09T19:36:53.534Z,43.38
2022-08-09T19:39:43.944Z,48.49
2022-08-09T19:42:14.456Z,49.70
2022-08-09T19:44:42.903Z,49.51
2022-08-09T19:47:11.257Z,50.67
2022-08-09T19:50:09.025Z,48.48
2022-08-09T19:52:26.657Z,50.36
2022-08-09T19:54:55.261Z,52.39
2022-08-09T19:57:25.703Z,45.22
2022-08-09T20:00:00.001Z,51.35
2022-08-09T20:04:11.438Z,52.09
2022-08-09T20:05:23.688Z,57.94
2022-08-09T20:08:00.488Z,52.36
2022-08-09T20:10:36.813Z,54.25
2022-08-09T20:13:06.505Z,52.99
2022-08-09T20:16:33.264Z,51.96
2022-08-09T20:18:28.167Z,58.16
2022-08-09T20:20:56.470Z,56.57
2022-08-09T20:23:38.619Z,56.65
2022-08-09T20:26:09.435Z,62.75
2022-08-09T20:28:48.651Z,58.71
2022-08-09T20:31:17.221Z,52.41
2022-08-09T20:33:45.653Z,58.46
2022-08-09T20:36:12.905Z,57.33
2022-08-09T20:41:35.133Z,57.52
2022-08-09T20:44:06.874Z,60.14
2022-08-09T20:46:42.923Z,57.53
2022-08-09T20:49:12.172Z,59.97
2022-08-09T20:51:42.192Z,56.20
2022-08-09T20:54:12.696Z,56.75
2022-08-09T20:56:53.662Z,57.21
2022-08-09T20:59:50.157Z,55.74
2022-08-09T21:02:09.986Z,57.88
2022-08-09T21:05:52.882Z,60.39
2022-08-09T21:07:38.479Z,60.47
2022-08-09T21:10:08.326Z,56.14
2022-08-09T21:12:38.679Z,57.16
2022-08-09T21:15:12.522Z,57.96
2022-08-09T21:18:22.979Z,61.55
2022-08-09T21:20:30.079Z,56.54
2022-08-09T21:22:59.711Z,59.04
2022-08-09T21:25:28.237Z,58.79
2022-08-09T21:28:12.253Z,63.57
2022-08-09T21:30:45.907Z,56.24
2022-08-09T21:33:21.843Z,57.46
2022-08-09T21:35:52.772Z,58.79
2022-08-09T21:38:31.010Z,58.99
2022-08-09T21:41:00.646Z,64.46
2022-08-09T21:43:56.026Z,65.21
2022-08-09T21:46:18.492Z,67.10
2022-08-09T21:48:49.480Z,62.18
2022-08-09T21:51:35.749Z,61.55
2022-08-09T21:54:05.782Z,59.96
2022-08-09T21:56:44.942Z,59.10
2022-08-09T21:59:25.683Z,66.16
2022-08-09T22:02:00.279Z,62.44
2022-08-09T22:04:55.037Z,62.46
2022-08-09T22:07:23.411Z,62.22
2022-08-09T22:10:05.962Z,64.68
2022-08-09T22:12:33.302Z,66.33
2022-08-09T22:15:05.703Z,66.13
2022-08-09T22:17:37.614Z,69.88
2022-08-09T22:20:17.108Z,66.44
2022-08-09T22:22:50.659Z,66.94
2022-08-09T22:26:05.461Z,69.49
2022-08-09T22:28:10.870Z,70.48
2022-08-09T22:30:48.668Z,70.32
2022-08-09T22:33:17.209Z,72.60
2022-08-09T22:36:01.682Z,71.69
2022-08-09T22:38:30.438Z,71.21
2022-08-09T22:41:00.655Z,72.96
2022-08-09T22:44:02.276Z,71.77
2022-08-09T22:48:14.950Z,71.74
2022-08-09T22:49:10.280Z,70.37
2022-08-09T22:51:49.797Z,70.68
2022-08-09T22:54:26.865Z,69.17
2022-08-09T22:56:56.638Z,73.41
2022-08-09T22:59:55.833Z,72.20
2022-08-09T23:02:23.717Z,69.19
2022-08-09T23:04:54.092Z,69.25
2022-08-09T23:07:31.143Z,73.17
2022-08-09T23:10:11.944Z,71.75
2022-08-09T23:12:43.227Z,72.97
2022-08-09T23:15:13.439Z,72.82
2022-08-09T23:17:45.440Z,74.84
2022-08-09T23:20:12.519Z,74.63
2022-08-09T23:22:41.300Z,74.37
2022-08-09T23:25:10.105Z,73.79
2022-08-09T23:28:11.686Z,73.27
2022-08-09T23:30:30.958Z,72.83
2022-08-09T23:33:08.883Z,73.78
2022-08-09T23:36:05.028Z,73.68
2022-08-09T23:38:33.143Z,74.37
2022-08-09T23:41:02.858Z,75.86
2022-08-09T23:43:34.945Z,75.82
2022-08-09T23:46:02.100Z,78.22
2022-08-09T23:48:30.497Z,76.63
2022-08-09T23:50:57.440Z,75.48
2022-08-09T23:53:25.628Z,77.05
2022-08-09T23:56:03.507Z,76.73
2022-08-09T23:58:36.939Z,75.80
